Time;durP1;ratioP1;P1;durP2;ratioP2;P2;SDS_P1;SDS_P2;PMS_P1;PMS_P2;Temp;Humidity;BMP_temperature;BMP_pressure;BME280_temperature;BME280_humidity;BME280_pressure;Samples;Min_cycle;Max_cycle;Signal;HPM_P1;HPM_P2
2022/04/22 00:01:27;;;;;;;27.10;20.70;;;;;;;8.51;79.26;100108.61;88212;1273;99747;-60
2022/04/22 00:03:37;;;;;;;31.90;21.70;;;;;;;8.51;79.20;100109.19;88257;1273;87707;-60
2022/04/22 00:05:48;;;;;;;29.10;19.50;;;;;;;8.53;79.33;100109.63;88199;1273;95027;-60
2022/04/22 00:08:00;;;;;;;26.00;16.60;;;;;;;8.58;79.10;100107.84;88199;1273;79428;-60
2022/04/22 00:10:11;;;;;;;23.00;14.90;;;;;;;8.60;78.85;100107.16;88221;1273;81180;-71
2022/04/22 00:12:23;;;;;;;25.60;15.50;;;;;;;8.61;78.74;100105.80;88223;1273;97852;-70
2022/04/22 00:14:32;;;;;;;23.80;15.30;;;;;;;8.62;78.74;100108.16;88231;1273;89296;-60
2022/04/22 00:16:41;;;;;;;22.80;15.40;;;;;;;8.62;78.67;100105.55;88198;1273;93437;-60
2022/04/22 00:18:50;;;;;;;20.70;14.40;;;;;;;8.62;78.70;100105.50;88196;1273;81514;-70
2022/04/22 00:21:00;;;;;;;22.40;15.80;;;;;;;8.64;78.80;100106.57;88230;1273;83032;-70
2022/04/22 00:23:09;;;;;;;21.90;14.00;;;;;;;8.66;78.68;100101.59;88238;1273;97987;-70
2022/04/22 00:25:18;;;;;;;20.40;14.30;;;;;;;8.71;78.63;100102.83;88224;1273;88343;-69
2022/04/22 00:27:27;;;;;;;19.50;14.50;;;;;;;8.74;78.55;100102.92;88189;1273;94672;-71
2022/04/22 00:29:36;;;;;;;19.90;14.60;;;;;;;8.76;78.48;100103.81;88229;1273;78856;-61
2022/04/22 00:31:45;;;;;;;18.10;13.90;;;;;;;8.79;78.49;100102.72;88199;1273;83901;-60
2022/04/22 00:33:54;;;;;;;19.60;12.70;;;;;;;8.81;78.27;100103.52;88218;1274;99120;-69
2022/04/22 00:36:03;;;;;;;18.10;12.70;;;;;;;8.83;78.29;100104.51;88211;1273;88647;-70
2022/04/22 00:38:15;;;;;;;19.10;13.00;;;;;;;8.86;78.28;100107.16;88204;1273;95323;-70
2022/04/22 00:40:24;;;;;;;18.60;11.80;;;;;;;8.91;78.14;100106.30;88203;1271;78176;-70
2022/04/22 00:42:36;;;;;;;17.60;12.60;;;;;;;8.89;78.04;100106.70;88182;1274;80590;-70
2022/04/22 00:44:48;;;;;;;16.30;11.70;;;;;;;8.91;77.95;100108.99;88210;1273;98706;-70
2022/04/22 00:46:57;;;;;;;16.60;11.50;;;;;;;8.91;77.99;100105.93;88206;1273;87265;-71
2022/04/22 00:49:06;;;;;;;17.20;11.50;;;;;;;8.90;77.97;100103.02;88218;1273;95242;-61
2022/04/22 00:51:18;;;;;;;15.70;11.50;;;;;;;8.89;77.99;100102.34;88213;1273;82045;-61
2022/04/22 00:53:27;;;;;;;15.30;10.90;;;;;;;8.89;77.90;100098.78;88265;1273;80807;-60
2022/04/22 00:55:42;;;;;;;18.40;11.30;;;;;;;8.93;77.84;100100.70;88211;1273;98185;-61
2022/04/22 00:57:52;;;;;;;15.30;10.00;;;;;;;8.92;77.89;100097.58;88223;1273;88061;-60
2022/04/22 01:00:07;;;;;;;14.70;10.00;;;;;;;8.90;77.95;100096.81;88202;1273;95026;-70
2022/04/22 01:02:16;;;;;;;17.10;10.20;;;;;;;8.93;77.89;100097.09;88225;1273;82589;-70
2022/04/22 01:11:45;;;;;;;11.80;9.50;;;;;;;8.94;77.91;100099.64;88207;1273;95066;-60
2022/04/22 01:13:55;;;;;;;16.60;10.10;;;;;;;8.97;77.81;100099.44;88223;1273;80071;-69
2022/04/22 01:16:04;;;;;;;14.60;10.50;;;;;;;9.00;77.79;100099.39;88224;1273;81169;-70
2022/04/22 01:18:16;;;;;;;13.20;9.40;;;;;;;9.01;77.83;100101.01;88215;1273;99576;-60
2022/04/22 01:20:27;;;;;;;13.00;8.30;;;;;;;8.98;77.76;100101.46;88255;1273;89276;-60
2022/04/22 01:22:39;;;;;;;15.70;9.30;;;;;;;8.95;77.90;100101.68;88183;1273;94650;-60
2022/04/22 01:24:55;;;;;;;11.20;8.50;;;;;;;8.98;77.73;100102.95;88226;1273;80189;-60
2022/04/22 01:27:09;;;;;;;14.30;8.50;;;;;;;8.99;77.74;100099.90;88222;1273;80582;-61
2022/04/22 01:29:21;;;;;;;12.50;8.60;;;;;;;9.02;77.70;100106.98;88183;1272;98593;-71
2022/04/22 01:31:33;;;;;;;10.60;8.00;;;;;;;9.02;77.71;100107.33;88223;1273;88827;-70
2022/04/22 01:33:42;;;;;;;10.00;7.80;;;;;;;8.99;77.74;100104.80;88182;1273;94600;-69
2022/04/22 01:35:50;;;;;;;10.90;7.50;;;;;;;8.99;77.72;100107.02;88226;1272;81264;-70
2022/04/22 01:37:59;;;;;;;13.60;8.20;;;;;;;8.98;77.86;100106.48;88234;1273;82205;-70
2022/04/22 01:40:10;;;;;;;11.30;7.80;;;;;;;8.98;77.80;100105.28;88233;1273;99385;-70
2022/04/22 01:42:22;;;;;;;11.70;6.90;;;;;;;9.00;77.87;100105.80;88223;1273;88711;-70
2022/04/22 01:44:30;;;;;;;11.40;7.00;;;;;;;8.98;77.92;100100.09;88218;1273;95157;-69
2022/04/22 01:46:40;;;;;;;12.20;6.90;;;;;;;8.96;78.00;100104.42;88220;1273;79647;-70
2022/04/22 01:48:49;;;;;;;9.60;6.40;;;;;;;8.96;78.07;100101.27;88251;1273;83272;-69
2022/04/22 01:50:58;;;;;;;9.70;6.40;;;;;;;8.97;78.02;100102.11;88208;1273;100150;-69
2022/04/22 01:53:08;;;;;;;10.30;6.80;;;;;;;8.99;78.10;100100.48;88229;1273;88958;-69
2022/04/22 01:55:20;;;;;;;8.00;6.60;;;;;;;9.00;78.03;100101.76;88217;1273;95386;-68
2022/04/22 01:57:29;;;;;;;10.00;6.20;;;;;;;9.00;78.13;100102.54;88224;1271;81320;-71
2022/04/22 01:59:44;;;;;;;8.70;6.40;;;;;;;9.02;78.23;100102.06;88247;1273;82734;-70
2022/04/22 02:01:53;;;;;;;10.10;6.50;;;;;;;9.02;78.10;100102.48;88189;1273;99721;-69
2022/04/22 02:04:03;;;;;;;12.10;7.00;;;;;;;9.04;78.23;100102.09;88199;1273;88317;-60
2022/04/22 02:06:12;;;;;;;9.30;6.00;;;;;;;9.02;78.24;100099.08;88211;1273;95039;-60
2022/04/22 02:08:21;;;;;;;7.70;6.00;;;;;;;9.00;78.40;100097.11;88223;1273;80050;-61
2022/04/22 02:10:30;;;;;;;8.60;5.60;;;;;;;9.02;78.27;100098.80;88199;1273;81348;-60
2022/04/22 02:12:39;;;;;;;8.80;6.10;;;;;;;9.03;78.38;100098.15;88217;1273;98583;-61
2022/04/22 02:14:51;;;;;;;9.50;6.60;;;;;;;9.01;78.45;100094.54;88238;1273;86657;-70
2022/04/22 02:16:59;;;;;;;10.00;6.60;;;;;;;9.03;78.44;100092.47;88208;1273;93615;-70
2022/04/22 02:19:09;;;;;;;13.70;8.10;;;;;;;9.06;78.45;100098.14;88211;1273;80557;-71
2022/04/22 02:21:21;;;;;;;9.40;5.90;;;;;;;9.06;78.47;100093.83;88193;1273;80273;-69
2022/04/22 02:23:33;;;;;;;10.00;5.70;;;;;;;9.05;78.42;100097.41;88216;1273;100548;-69
2022/04/22 02:25:45;;;;;;;7.40;6.00;;;;;;;9.06;78.52;100099.46;88184;1273;89344;-71
2022/04/22 02:30:20;;;;;;;8.10;6.40;;;;;;;8.96;78.61;100101.95;88200;1273;80413;-60
2022/04/22 02:32:33;;;;;;;9.40;6.60;;;;;;;8.99;78.68;100105.73;88223;1273;82399;-60
2022/04/22 02:34:43;;;;;;;10.90;6.30;;;;;;;9.00;78.68;100108.05;88149;1273;98770;-70
2022/04/22 02:36:53;;;;;;;9.50;6.40;;;;;;;8.97;78.90;100107.74;88205;1273;88319;-70
2022/04/22 02:39:04;;;;;;;9.70;5.80;;;;;;;8.90;79.17;100105.85;88202;1273;94254;-70
2022/04/22 02:46:05;;;;;;;8.20;5.20;;;;;;;8.80;79.45;100109.56;88200;1273;99956;-70
2022/04/22 02:48:15;;;;;;;9.30;6.00;;;;;;;8.80;79.53;100109.09;88214;1273;88445;-70
2022/04/22 02:50:24;;;;;;;9.10;5.80;;;;;;;8.78;79.65;100109.97;88227;1273;93960;-59
2022/04/22 02:52:36;;;;;;;6.80;4.40;;;;;;;8.80;79.65;100112.07;88221;1273;79699;-59
2022/04/22 02:54:45;;;;;;;6.20;4.40;;;;;;;8.75;79.98;100113.92;88221;1273;81060;-70
2022/04/22 02:56:54;;;;;;;5.50;4.10;;;;;;;8.78;79.77;100111.80;88226;1273;97745;-71
2022/04/22 02:59:07;;;;;;;4.60;3.90;;;;;;;8.82;79.64;100112.27;88229;1273;87641;-60
2022/04/22 03:01:16;;;;;;;5.10;3.80;;;;;;;8.80;79.77;100109.72;88205;1273;94352;-59
2022/04/22 03:03:29;;;;;;;4.60;3.60;;;;;;;8.81;79.75;100113.83;88206;1273;81628;-60
2022/04/22 03:05:38;;;;;;;4.90;3.30;;;;;;;8.76;79.85;100112.98;88243;1273;83383;-59
2022/04/22 03:07:47;;;;;;;4.30;3.30;;;;;;;8.74;80.06;100115.71;88218;1273;99056;-60
2022/04/22 03:09:59;;;;;;;4.90;3.20;;;;;;;8.68;79.95;100110.56;88238;1273;89023;-70
2022/04/22 03:12:09;;;;;;;4.60;3.20;;;;;;;8.70;79.98;100110.68;88181;1273;95463;-70
2022/04/22 03:14:19;;;;;;;4.70;2.90;;;;;;;8.72;80.17;100115.98;88169;1274;80515;-70
2022/04/22 03:16:30;;;;;;;5.50;3.00;;;;;;;8.71;80.20;100114.33;88233;1273;80726;-70
2022/04/22 03:18:40;;;;;;;4.20;2.80;;;;;;;8.73;80.13;100114.02;88229;1273;98912;-61
2022/04/22 03:20:48;;;;;;;4.20;2.90;;;;;;;8.75;80.09;100114.32;88236;1273;88780;-60
2022/04/22 03:22:57;;;;;;;4.40;3.00;;;;;;;8.77;80.16;100115.58;88222;1273;94201;-59
2022/04/22 03:25:08;;;;;;;4.70;3.30;;;;;;;8.75;80.22;100120.04;88210;1274;79933;-71
2022/04/22 03:27:17;;;;;;;6.00;3.20;;;;;;;8.78;80.13;100118.98;88204;1276;82726;-71
2022/04/22 03:29:26;;;;;;;5.00;3.20;;;;;;;8.78;80.18;100120.29;88244;1273;98546;-70
2022/04/22 03:31:38;;;;;;;4.80;3.60;;;;;;;8.74;80.31;100120.92;88225;1273;89530;-70
2022/04/22 03:33:46;;;;;;;4.00;3.10;;;;;;;8.68;80.40;100121.59;88216;1273;95705;-70
2022/04/22 03:35:55;;;;;;;3.90;3.30;;;;;;;8.64;80.26;100121.20;88206;1273;80253;-70
2022/04/22 03:38:04;;;;;;;3.80;3.10;;;;;;;8.64;80.42;100127.52;88216;1273;80427;-71
2022/04/22 03:40:16;;;;;;;4.30;3.00;;;;;;;8.62;80.58;100127.17;88210;1273;98396;-70
2022/04/22 03:42:25;;;;;;;5.30;2.80;;;;;;;8.58;81.05;100126.89;88208;1273;88404;-71
2022/04/22 03:44:34;;;;;;;4.30;2.80;;;;;;;8.51;80.79;100123.55;87850;1273;502537;-69
2022/04/22 03:46:44;;;;;;;4.10;3.00;;;;;;;8.46;80.67;100125.75;88195;1273;81014;-69
2022/04/22 03:48:57;;;;;;;3.50;2.70;;;;;;;8.47;80.60;100121.87;88231;1273;83168;-60
2022/04/22 03:51:06;;;;;;;3.10;2.60;;;;;;;8.48;80.67;100122.71;88201;1273;99558;-60
2022/04/22 03:53:16;;;;;;;4.30;3.00;;;;;;;8.48;80.67;100121.60;88236;1273;89044;-60
2022/04/22 03:55:25;;;;;;;3.50;2.90;;;;;;;8.50;80.64;100120.94;88251;1273;95002;-68
2022/04/22 04:00:04;;;;;;;4.10;3.50;;;;;;;8.55;80.66;100127.85;88234;1273;83371;-60
2022/04/22 04:02:14;;;;;;;4.80;3.30;;;;;;;8.57;80.59;100129.79;88227;1273;99009;-61
2022/04/22 04:04:22;;;;;;;5.80;4.20;;;;;;;8.58;80.73;100133.48;88215;1273;88947;-70
2022/04/22 04:06:31;;;;;;;4.90;3.30;;;;;;;8.57;80.85;100140.17;88225;1273;94621;-70
2022/04/22 04:08:40;;;;;;;4.80;4.20;;;;;;;8.52;80.82;100137.19;88218;1273;80501;-69
2022/04/22 04:15:59;;;;;;;5.00;3.80;;;;;;;8.43;81.13;100146.04;88215;1273;88552;-60
2022/04/22 04:18:07;;;;;;;4.60;3.80;;;;;;;8.43;81.03;100145.66;88201;1273;95314;-60
2022/04/22 04:25:11;;;;;;;4.40;3.20;;;;;;;8.44;80.89;100145.39;88241;1273;97795;-60
2022/04/22 04:27:21;;;;;;;4.60;3.40;;;;;;;8.39;80.89;100143.08;88234;1273;88310;-60
2022/04/22 04:29:30;;;;;;;3.40;2.60;;;;;;;8.41;80.92;100142.96;88236;1273;95220;-60
2022/04/22 04:31:40;;;;;;;5.40;4.10;;;;;;;8.45;80.75;100136.70;88239;1273;81139;-60
2022/04/22 04:33:50;;;;;;;5.20;3.60;;;;;;;8.44;80.62;100139.29;88249;1273;83534;-71
2022/04/22 04:35:58;;;;;;;7.40;4.20;;;;;;;8.41;80.91;100142.89;88231;1273;97469;-71
2022/04/22 04:38:09;;;;;;;6.30;3.60;;;;;;;8.46;80.84;100142.30;88194;1273;87969;-71
2022/04/22 04:40:25;;;;;;;7.40;5.40;;;;;;;8.43;80.76;100134.70;88196;1273;94213;-71
2022/04/22 04:42:35;;;;;;;5.40;3.80;;;;;;;8.48;80.68;100133.75;88157;1274;80669;-71
2022/04/22 04:44:44;;;;;;;5.50;3.90;;;;;;;8.54;80.71;100132.13;88240;1273;82910;-60
2022/04/22 04:46:59;;;;;;;7.60;4.60;;;;;;;8.62;80.68;100133.47;88225;1273;100432;-59
2022/04/22 04:49:12;;;;;;;6.50;4.50;;;;;;;8.96;80.54;100135.70;88252;1273;88743;-68
2022/04/22 04:51:27;;;;;;;7.00;5.10;;;;;;;9.39;80.08;100136.69;88225;1273;95642;-70
2022/04/22 04:53:40;;;;;;;6.20;4.30;;;;;;;9.64;79.66;100143.58;88218;1273;80040;-70
2022/04/22 04:55:50;;;;;;;8.10;5.60;;;;;;;9.81;79.13;100149.02;88249;1273;81075;-69
2022/04/22 04:57:59;;;;;;;6.60;4.50;;;;;;;9.89;78.68;100153.09;88227;1273;98129;-70
2022/04/22 05:00:10;;;;;;;6.50;4.80;;;;;;;10.84;78.80;100152.07;88219;1273;87727;-69
2022/04/22 05:02:21;;;;;;;5.40;4.50;;;;;;;11.89;77.27;100158.64;88233;1273;94240;-69
2022/04/22 05:04:30;;;;;;;5.30;4.30;;;;;;;11.70;75.76;100154.02;88251;1273;78930;-70
2022/04/22 05:06:40;;;;;;;6.80;5.90;;;;;;;11.16;74.35;100159.02;88236;1273;81065;-70
2022/04/22 05:08:52;;;;;;;7.00;5.20;;;;;;;10.70;74.31;100159.24;88239;1273;98932;-59
2022/04/22 05:11:01;;;;;;;7.80;6.30;;;;;;;10.46;74.37;100167.27;88224;1273;89312;-59
2022/04/22 05:13:10;;;;;;;7.80;5.70;;;;;;;10.60;74.69;100161.24;88223;1273;94313;-61
2022/04/22 05:15:20;;;;;;;5.80;5.10;;;;;;;10.84;73.74;100160.60;88258;1273;77938;-69
2022/04/22 05:17:32;;;;;;;6.80;5.50;;;;;;;11.03;74.30;100158.56;88242;1273;82606;-68
2022/04/22 05:19:43;;;;;;;8.40;5.90;;;;;;;12.30;73.07;100156.02;88205;1273;98764;-60
2022/04/22 05:21:56;;;;;;;6.40;5.40;;;;;;;12.36;71.92;100162.73;88213;1273;87811;-59
2022/04/22 05:24:06;;;;;;;9.40;7.10;;;;;;;12.21;70.53;100161.80;88215;1273;95557;-58
2022/04/22 05:26:15;;;;;;;14.70;9.10;;;;;;;12.08;70.85;100165.98;88225;1273;78094;-58
2022/04/22 05:28:24;;;;;;;9.10;7.50;;;;;;;11.72;70.81;100174.89;88226;1273;79516;-60
2022/04/22 05:32:59;;;;;;;8.00;6.70;;;;;;;10.66;71.24;100174.72;88227;1273;89362;-59
2022/04/22 05:35:10;;;;;;;9.10;7.20;;;;;;;10.42;71.63;100174.91;88246;1273;94900;-60
2022/04/22 05:37:19;;;;;;;9.90;7.10;;;;;;;10.19;71.74;100177.52;88248;1273;78663;-60
2022/04/22 05:39:28;;;;;;;10.80;7.80;;;;;;;10.06;71.97;100180.91;88242;1273;81199;-60
2022/04/22 05:41:40;;;;;;;13.50;9.20;;;;;;;9.97;72.08;100185.68;88227;1273;97863;-60
2022/04/22 05:43:52;;;;;;;9.10;7.20;;;;;;;9.84;72.21;100184.45;88234;1273;87016;-60
2022/04/22 05:46:00;;;;;;;7.50;6.60;;;;;;;9.72;72.39;100184.31;88222;1273;93462;-61
2022/04/22 05:48:13;;;;;;;12.20;7.80;;;;;;;9.71;72.52;100185.20;88225;1273;82627;-60
2022/04/22 05:50:24;;;;;;;10.00;7.00;;;;;;;9.65;72.55;100188.58;88230;1273;81220;-69
2022/04/22 05:52:34;;;;;;;15.00;9.80;;;;;;;9.64;72.61;100190.89;88249;1273;98132;-70
2022/04/22 05:54:43;;;;;;;9.50;7.80;;;;;;;9.89;72.61;100189.36;88217;1273;87534;-69
2022/04/22 05:56:53;;;;;;;16.70;10.90;;;;;;;9.94;72.41;100192.88;88225;1273;93153;-69
2022/04/22 05:59:02;;;;;;;10.80;8.00;;;;;;;9.96;72.30;100191.40;88228;1273;78500;-60
2022/04/22 06:01:12;;;;;;;9.10;7.50;;;;;;;9.93;71.87;100197.00;88243;1273;83097;-60
2022/04/22 06:03:32;;;;;;;12.90;9.20;;;;;;;9.94;71.86;100196.72;88278;1273;97935;-69
2022/04/22 06:05:41;;;;;;;11.10;8.40;;;;;;;9.93;71.68;100202.27;88238;1273;89228;-70
2022/04/22 06:10:33;;;;;;;10.80;8.40;;;;;;;9.75;71.34;100202.31;88223;1273;79254;-59
2022/04/22 06:12:42;;;;;;;11.90;9.10;;;;;;;9.70;71.56;100203.38;88211;1273;82413;-59
2022/04/22 06:14:54;;;;;;;13.60;9.80;;;;;;;9.72;71.13;100205.52;88279;1273;99345;-58
2022/04/22 06:17:04;;;;;;;18.10;10.70;;;;;;;9.71;71.10;100205.70;88227;1273;89446;-59
2022/04/22 06:19:18;;;;;;;14.20;10.40;;;;;;;9.87;71.35;100206.52;88208;1273;95463;-60
2022/04/22 06:21:29;;;;;;;16.10;10.60;;;;;;;10.14;71.16;100210.19;88236;1273;80174;-69
2022/04/22 06:23:38;;;;;;;10.00;7.60;;;;;;;10.29;70.09;100217.73;88263;1273;80996;-59
2022/04/22 06:25:48;;;;;;;13.60;8.80;;;;;;;10.27;69.61;100211.08;88213;1273;100008;-60
2022/04/22 06:27:57;;;;;;;9.40;6.70;;;;;;;10.55;69.44;100216.09;88213;1273;87428;-60
2022/04/22 06:30:13;;;;;;;10.30;7.50;;;;;;;10.81;69.38;100211.01;88244;1273;94160;-60
2022/04/22 06:32:27;;;;;;;17.90;10.00;;;;;;;12.03;70.35;100201.57;88216;1273;78553;-60
2022/04/22 06:34:37;;;;;;;13.30;9.20;;;;;;;13.22;66.61;100194.92;88249;1273;80992;-61
2022/04/22 06:36:46;;;;;;;10.50;7.90;;;;;;;13.86;65.98;100195.84;88263;1273;98311;-59
2022/04/22 06:39:02;;;;;;;9.40;6.50;;;;;;;14.40;63.25;100193.54;88242;1273;89484;-77
2022/04/22 06:46:09;;;;;;;6.60;6.00;;;;;;;14.25;59.66;100189.50;88230;1273;81775;-61
2022/04/22 06:48:25;;;;;;;6.50;5.30;;;;;;;15.69;57.87;100191.27;88232;1273;97388;-59
2022/04/22 06:50:38;;;;;;;5.60;5.00;;;;;;;16.14;58.18;100194.69;88230;1273;88085;-69
2022/04/22 06:52:46;;;;;;;;;;;;;;;16.88;55.78;100195.23;88272;1273;93752;-74
2022/04/22 06:54:59;;;;;;;5.30;4.80;;;;;;;17.22;55.43;100204.02;88204;1274;79831;-60
2022/04/22 06:57:11;;;;;;;5.20;4.60;;;;;;;18.35;54.07;100205.63;88246;1273;82337;-60
2022/04/22 06:59:23;;;;;;;5.50;4.90;;;;;;;19.64;51.92;100198.32;88237;1273;100303;-60
2022/04/22 07:01:34;;;;;;;4.90;3.90;;;;;;;19.17;49.65;100193.60;88242;1273;89335;-60
2022/04/22 07:03:45;;;;;;;5.20;4.20;;;;;;;18.05;50.14;100197.25;88176;1274;95502;-70
2022/04/22 07:05:56;;;;;;;8.70;6.50;;;;;;;19.09;51.12;100197.29;88238;1273;81245;-70
2022/04/22 07:08:08;;;;;;;6.10;3.90;;;;;;;20.93;50.07;100189.06;88255;1272;83269;-69
2022/04/22 07:10:24;;;;;;;4.10;3.70;;;;;;;22.09;46.55;100177.95;88222;1273;99348;-59
2022/04/22 07:12:36;;;;;;;4.00;3.40;;;;;;;22.92;45.82;100169.29;88226;1273;87938;-60
2022/04/22 07:14:49;;;;;;;6.30;5.50;;;;;;;23.91;45.74;100167.58;88231;1273;94231;-69
2022/04/22 07:17:01;;;;;;;;;;;;;;;23.82;43.27;100172.85;88225;1273;80956;-70
2022/04/22 07:19:14;;;;;;;4.40;4.00;;;;;;;23.66;44.21;100178.65;88252;1273;82525;-61
2022/04/22 07:21:30;;;;;;;6.70;5.10;;;;;;;23.08;43.87;100176.47;88243;1273;98421;-60
2022/04/22 07:23:44;;;;;;;9.90;6.50;;;;;;;22.39;42.26;100178.23;88214;1273;89287;-68
2022/04/22 07:25:54;;;;;;;4.50;4.10;;;;;;;20.26;40.56;100182.27;88206;1273;94374;-69
2022/04/22 07:28:08;;;;;;;6.90;5.40;;;;;;;18.82;41.73;100188.09;88246;1273;77958;-70
2022/04/22 07:30:23;;;;;;;5.90;5.10;;;;;;;19.26;45.22;100183.18;88253;1273;80955;-60
2022/04/22 07:32:37;;;;;;;7.40;5.70;;;;;;;21.51;45.17;100174.70;88234;1273;99572;-60
2022/04/22 07:34:50;;;;;;;6.90;5.40;;;;;;;22.54;41.90;100175.10;88266;1273;87178;-60
2022/04/22 07:37:00;;;;;;;4.50;3.60;;;;;;;21.66;41.37;100169.88;88236;1273;94361;-60
2022/04/22 07:39:11;;;;;;;7.20;5.60;;;;;;;20.81;40.16;100181.72;88240;1273;78156;-58
2022/04/22 07:41:25;;;;;;;4.10;3.70;;;;;;;20.42;40.99;100187.91;88249;1273;81848;-59
2022/04/22 07:48:32;;;;;;;4.60;4.20;;;;;;;22.43;42.25;100177.75;88228;1273;96120;-61
2022/04/22 07:50:46;;;;;;;7.70;5.80;;;;;;;23.25;40.61;100181.20;88242;1273;77818;-61
2022/04/22 07:52:56;;;;;;;5.40;4.90;;;;;;;23.62;39.25;100183.50;88253;1273;82880;-60
2022/04/22 07:55:10;;;;;;;5.40;4.50;;;;;;;22.56;38.87;100183.84;88225;1273;99187;-60
2022/04/22 07:57:21;;;;;;;5.90;4.60;;;;;;;21.26;39.44;100190.36;88240;1273;86148;-60
2022/04/22 07:59:32;;;;;;;7.50;5.30;;;;;;;19.86;39.93;100200.70;88224;1273;94596;-70
2022/04/22 08:01:42;;;;;;;4.80;4.30;;;;;;;18.68;40.63;100205.25;88215;1273;78758;-71
2022/04/22 08:03:57;;;;;;;5.50;4.30;;;;;;;18.25;42.30;100201.77;88244;1273;81435;-60
2022/04/22 08:06:07;;;;;;;5.00;4.00;;;;;;;19.47;43.13;100208.25;88243;1273;100011;-60
2022/04/22 08:08:17;;;;;;;5.20;4.50;;;;;;;19.48;41.74;100209.44;88262;1273;88864;-61
2022/04/22 08:10:29;;;;;;;6.00;4.50;;;;;;;18.37;41.11;100217.98;88211;1273;94729;-60
2022/04/22 08:12:42;;;;;;;5.50;5.00;;;;;;;17.44;41.29;100228.23;88225;1273;79953;-64
2022/04/22 08:14:55;;;;;;;8.10;6.60;;;;;;;16.87;42.69;100233.54;88242;1273;82396;-61
2022/04/22 08:17:08;;;;;;;5.40;4.90;;;;;;;16.60;43.22;100236.45;88236;1273;98388;-59
2022/04/22 08:19:18;;;;;;;6.80;5.00;;;;;;;15.90;43.89;100242.04;88237;1273;89661;-60
2022/04/22 08:21:33;;;;;;;6.30;4.70;;;;;;;15.83;45.01;100239.06;88254;1273;93920;-59
2022/04/22 08:23:42;;;;;;;6.40;5.60;;;;;;;16.93;44.54;100237.72;88226;1273;80460;-72
2022/04/22 08:25:51;;;;;;;7.60;5.40;;;;;;;17.46;44.23;100230.93;88214;1273;82006;-71
2022/04/22 08:28:02;;;;;;;6.70;5.10;;;;;;;17.37;43.46;100229.41;88216;1273;99584;-73
2022/04/22 08:30:15;;;;;;;7.80;6.20;;;;;;;16.69;43.20;100237.30;88246;1273;88128;-71
2022/04/22 08:32:24;;;;;;;19.80;7.30;;;;;;;16.13;43.90;100233.13;88216;1273;95897;-73
2022/04/22 08:34:36;;;;;;;22.50;7.70;;;;;;;15.35;44.75;100227.74;88269;1273;77847;-61
2022/04/22 08:36:46;;;;;;;7.50;4.80;;;;;;;15.48;45.63;100234.87;88237;1273;80374;-60
2022/04/22 08:38:59;;;;;;;7.60;5.90;;;;;;;15.68;45.35;100239.86;88235;1273;100383;-70
2022/04/22 08:41:10;;;;;;;6.30;5.00;;;;;;;15.35;45.59;100241.86;88239;1273;88293;-74
2022/04/22 08:43:21;;;;;;;9.30;6.10;;;;;;;15.38;46.22;100228.39;88239;1273;94991;-72
2022/04/22 08:45:33;;;;;;;6.40;5.20;;;;;;;15.98;46.48;100229.48;88225;1273;78214;-59
2022/04/22 08:50:16;;;;;;;7.90;6.30;;;;;;;16.03;45.61;100228.09;88248;1273;99267;-59
2022/04/22 08:52:28;;;;;;;9.70;6.50;;;;;;;15.48;45.27;100220.05;88274;1273;88741;-60
2022/04/22 08:54:45;;;;;;;41.90;11.00;;;;;;;14.88;45.93;100215.55;88232;1273;94582;-70
2022/04/22 08:56:54;;;;;;;11.90;6.60;;;;;;;14.76;46.35;100222.98;88248;1273;79571;-69
2022/04/22 08:59:06;;;;;;;9.50;6.10;;;;;;;14.76;46.48;100222.56;88254;1273;81274;-59
2022/04/22 09:01:19;;;;;;;9.30;5.10;;;;;;;15.22;45.96;100222.98;88206;1273;100058;-63
2022/04/22 09:03:32;;;;;;;5.30;4.50;;;;;;;15.01;45.89;100224.03;88271;1273;89013;-71
2022/04/22 09:05:42;;;;;;;6.20;5.20;;;;;;;14.83;45.96;100222.30;88256;1273;94201;-68
2022/04/22 09:07:53;;;;;;;5.50;5.00;;;;;;;14.58;46.28;100222.82;88253;1274;78096;-68
2022/04/22 09:10:02;;;;;;;5.90;5.00;;;;;;;14.27;46.34;100224.61;88246;1273;82265;-68
2022/04/22 09:12:14;;;;;;;6.40;5.50;;;;;;;14.24;47.13;100225.88;88268;1274;98137;-70
2022/04/22 09:14:26;;;;;;;7.40;5.20;;;;;;;14.58;46.95;100228.50;88268;1273;86551;-73
2022/04/22 09:16:38;;;;;;;6.40;5.60;;;;;;;14.75;47.31;100228.49;88243;1273;95469;-71
2022/04/22 09:18:58;;;;;;;6.10;5.30;;;;;;;15.21;46.73;100238.02;88255;1273;78175;-70
2022/04/22 09:21:10;;;;;;;8.60;6.20;;;;;;;15.47;46.83;100227.81;88262;1274;82563;-72
2022/04/22 09:23:37;;;;;;;6.30;5.60;;;;;;;15.96;46.33;100232.30;88242;1274;99017;-67
2022/04/22 09:25:47;;;;;;;5.30;4.80;;;;;;;15.83;45.58;100232.19;88228;1274;89694;-59
2022/04/22 09:28:10;;;;;;;7.00;5.40;;;;;;;15.36;45.25;100227.02;88221;1274;95387;-59
2022/04/22 09:30:18;;;;;;;8.20;5.70;;;;;;;15.27;46.29;100228.94;88237;1274;80993;-71
2022/04/22 09:32:33;;;;;;;5.90;4.80;;;;;;;15.30;46.23;100228.66;88246;1274;84091;-70
2022/04/22 09:34:45;;;;;;;5.30;4.80;;;;;;;15.08;45.78;100234.85;88231;1274;100022;-62
2022/04/22 09:45:00;;;;;;;6.10;5.50;;;;;;;14.66;45.97;100245.39;88013;1279;81344;-68
2022/04/22 09:47:16;;;;;;;5.50;4.80;;;;;;;14.55;46.51;100242.23;88162;1274;97804;-68
2022/04/22 09:49:43;;;;;;;5.40;4.80;;;;;;;14.55;46.31;100246.95;88238;1274;87834;-60
2022/04/22 09:52:06;;;;;;;5.10;4.60;;;;;;;14.30;46.19;100251.90;88229;1274;94844;-60
2022/04/22 09:54:21;;;;;;;5.00;4.50;;;;;;;13.99;45.97;100247.92;88234;1272;78461;-71
2022/04/22 09:56:33;;;;;;;5.40;4.90;;;;;;;13.86;46.33;100242.92;88270;1273;81898;-70
2022/04/22 09:58:45;;;;;;;4.90;4.40;;;;;;;13.77;46.23;100242.91;88262;1274;98802;-70
2022/04/22 10:01:03;;;;;;;5.00;4.50;;;;;;;13.60;46.25;100247.31;88227;1273;87928;-69
2022/04/22 10:03:14;;;;;;;6.90;4.90;;;;;;;13.52;46.65;100243.52;88210;1274;95239;-68
2022/04/22 10:05:28;;;;;;;7.30;5.20;;;;;;;13.47;46.79;100246.95;88259;1274;78472;-63
2022/04/22 10:07:40;;;;;;;4.70;4.30;;;;;;;13.83;46.90;100239.75;88231;1274;80363;-60
2022/04/22 10:09:53;;;;;;;6.30;4.50;;;;;;;13.93;46.14;100248.83;88258;1274;100011;-70
2022/04/22 10:12:10;;;;;;;5.90;4.50;;;;;;;13.82;45.81;100248.17;88246;1274;89060;-70
2022/04/22 10:14:33;;;;;;;4.40;4.00;;;;;;;13.63;45.95;100251.81;88254;1273;93283;-73
2022/04/22 10:16:43;;;;;;;5.10;3.70;;;;;;;13.60;46.20;100252.61;88240;1274;77522;-70
2022/04/22 10:18:54;;;;;;;5.40;4.30;;;;;;;14.09;46.68;100250.90;88211;1274;80966;-60
2022/04/22 10:21:04;;;;;;;5.40;4.20;;;;;;;14.41;46.31;100251.08;88254;1273;99405;-59
2022/04/22 10:23:17;;;;;;;11.00;4.90;;;;;;;14.58;46.49;100245.35;88194;1274;90670;-60
2022/04/22 10:25:29;;;;;;;6.70;5.10;;;;;;;14.53;46.63;100244.97;88208;1274;94536;-60
2022/04/22 10:27:39;;;;;;;5.50;4.60;;;;;;;14.37;46.96;100244.94;88148;1277;80427;-61
2022/04/22 10:29:52;;;;;;;10.20;5.80;;;;;;;14.28;47.17;100248.57;88136;1277;83700;-59
2022/04/22 10:32:03;;;;;;;10.00;5.80;;;;;;;14.07;46.80;100243.80;88147;1276;96554;-60
2022/04/22 10:34:13;;;;;;;5.30;4.80;;;;;;;13.99;47.23;100248.48;88160;1277;88027;-60
2022/04/22 10:36:25;;;;;;;5.50;4.50;;;;;;;14.22;46.90;100245.58;88160;1277;95584;-61
2022/04/22 10:38:38;;;;;;;16.80;6.30;;;;;;;14.36;47.16;100250.04;88121;1277;79598;-59
2022/04/22 10:40:52;;;;;;;5.60;4.60;;;;;;;14.47;46.85;100256.72;88177;1275;80346;-59
2022/04/22 10:43:05;;;;;;;8.20;4.60;;;;;;;14.32;46.61;100244.70;88171;1277;99492;-62
2022/04/22 10:47:50;;;;;;;38.90;10.10;;;;;;;14.43;47.02;100241.31;88120;1277;95202;-61
2022/04/22 10:50:27;;;;;;;73.50;15.50;;;;;;;14.52;47.08;100246.73;88175;1277;78648;-60
2022/04/22 10:53:02;;;;;;;19.20;6.40;;;;;;;14.72;47.02;100240.31;88178;1277;81993;-61
2022/04/22 10:55:16;;;;;;;48.60;10.40;;;;;;;14.53;46.53;100247.28;88108;1276;101496;-69
2022/04/22 10:57:29;;;;;;;17.50;6.20;;;;;;;14.14;46.94;100250.33;88173;1277;88662;-71
2022/04/22 10:59:38;;;;;;;8.50;5.50;;;;;;;13.76;47.15;100244.17;88167;1277;95044;-70
2022/04/22 11:01:48;;;;;;;7.40;4.80;;;;;;;13.54;47.10;100249.07;88169;1277;78692;-70
2022/04/22 11:04:01;;;;;;;43.30;10.30;;;;;;;13.50;47.44;100241.86;88172;1278;82003;-59
2022/04/22 11:06:19;;;;;;;16.10;5.60;;;;;;;13.52;47.59;100240.98;88165;1276;98675;-58
2022/04/22 11:08:38;;;;;;;22.50;7.30;;;;;;;13.63;47.42;100237.36;88163;1277;88419;-60